createdAt,value
2022-12-29T00:02:30.518Z,101584.00
2022-12-29T00:08:42.009Z,101580.00
2022-12-29T00:15:02.870Z,101569.00
2022-12-29T00:21:23.870Z,101578.00
2022-12-29T00:27:46.562Z,101574.00
2022-12-29T00:34:09.328Z,101589.00
2022-12-29T00:40:30.131Z,101586.00
2022-12-29T00:46:35.630Z,101576.00
2022-12-29T00:52:37.848Z,101572.00
2022-12-29T00:58:40.225Z,101578.00
2022-12-29T01:04:43.990Z,101563.00
2022-12-29T01:10:46.124Z,101556.00
2022-12-29T01:16:48.635Z,101547.00
2022-12-29T01:22:52.013Z,101531.00
2022-12-29T01:28:55.752Z,101544.00
2022-12-29T01:34:58.421Z,101554.00
2022-12-29T01:41:00.904Z,101543.00
2022-12-29T01:47:03.111Z,101532.00
2022-12-29T01:53:11.344Z,101507.00
2022-12-29T01:59:19.094Z,101505.00
2022-12-29T02:05:53.932Z,101502.00
2022-12-29T02:11:56.411Z,101492.00
2022-12-29T02:18:33.747Z,101509.00
2022-12-29T02:25:23.452Z,101506.00
2022-12-29T02:32:02.201Z,101477.00
2022-12-29T02:38:19.636Z,101495.00
2022-12-29T02:44:51.491Z,101502.00
2022-12-29T02:51:01.845Z,101505.00
2022-12-29T02:57:03.994Z,101495.00
2022-12-29T03:03:30.186Z,101500.00
2022-12-29T03:09:56.111Z,101502.00
2022-12-29T03:16:13.826Z,101503.00
2022-12-29T03:22:28.903Z,101494.00
2022-12-29T03:28:41.555Z,101499.00
2022-12-29T03:34:46.030Z,101501.00
2022-12-29T03:40:57.068Z,101490.00
2022-12-29T03:47:01.160Z,101500.00
2022-12-29T03:53:03.534Z,101506.00
2022-12-29T03:59:06.744Z,101509.00
2022-12-29T04:05:15.046Z,101510.00
2022-12-29T04:11:17.604Z,101507.00
2022-12-29T04:17:21.172Z,101509.00
2022-12-29T04:23:26.496Z,101488.00
2022-12-29T04:29:28.992Z,101493.00
2022-12-29T04:35:51.766Z,101494.00
2022-12-29T04:41:54.049Z,101494.00
2022-12-29T04:47:57.290Z,101491.00
2022-12-29T04:54:26.070Z,101484.00
2022-12-29T05:00:40.975Z,101483.00
2022-12-29T05:06:43.618Z,101475.00
2022-12-29T05:12:46.260Z,101479.00
2022-12-29T05:18:49.524Z,101479.00
2022-12-29T05:24:51.697Z,101473.00
2022-12-29T05:30:54.109Z,101458.00
2022-12-29T05:36:56.247Z,101467.00
2022-12-29T05:42:59.767Z,101466.00
2022-12-29T05:49:15.281Z,101475.00
2022-12-29T05:55:36.394Z,101480.00
2022-12-29T06:01:39.142Z,101484.00
2022-12-29T06:07:41.740Z,101488.00
2022-12-29T06:13:44.116Z,101492.00
2022-12-29T06:19:47.665Z,101504.00
2022-12-29T06:25:50.037Z,101503.00
2022-12-29T06:31:59.222Z,101504.00
2022-12-29T06:38:02.343Z,101515.00
2022-12-29T06:44:04.570Z,101521.00
2022-12-29T06:50:25.070Z,101513.00
2022-12-29T06:56:27.150Z,101499.00
2022-12-29T07:02:29.334Z,101513.00
2022-12-29T07:08:31.684Z,101516.00
2022-12-29T07:14:37.424Z,101534.00
2022-12-29T07:20:44.775Z,101443.00
2022-12-29T07:26:46.805Z,101360.00
2022-12-29T07:32:49.498Z,101378.00
2022-12-29T07:38:51.580Z,101463.00
2022-12-29T07:44:53.921Z,101407.00
2022-12-29T07:51:08.834Z,101488.00
2022-12-29T07:57:11.190Z,101406.00
2022-12-29T08:03:13.337Z,101408.00
2022-12-29T08:09:21.999Z,101428.00
2022-12-29T08:15:30.521Z,101470.00
2022-12-29T08:21:34.548Z,101517.00
2022-12-29T08:27:36.806Z,101498.00
2022-12-29T08:33:38.936Z,101332.00
2022-12-29T08:39:41.036Z,101414.00
2022-12-29T08:45:43.085Z,101523.00
2022-12-29T08:51:45.264Z,101524.00
2022-12-29T08:57:47.510Z,101546.00
2022-12-29T09:04:14.231Z,101522.00
2022-12-29T09:10:16.737Z,101512.00
2022-12-29T09:16:19.737Z,101506.00
2022-12-29T09:22:21.937Z,101509.00
2022-12-29T09:28:24.630Z,101513.00
2022-12-29T09:34:26.862Z,101502.00
2022-12-29T09:40:32.428Z,101496.00
2022-12-29T09:46:40.126Z,101497.00
2022-12-29T09:52:51.224Z,101477.00
2022-12-29T09:59:01.436Z,101468.00
2022-12-29T10:05:03.822Z,101467.00
2022-12-29T10:11:15.299Z,101473.00
2022-12-29T10:17:47.523Z,101468.00
2022-12-29T10:23:53.251Z,101461.00
2022-12-29T10:30:00.663Z,101450.00
2022-12-29T10:36:16.752Z,101455.00
2022-12-29T10:42:39.297Z,101448.00
2022-12-29T10:48:41.482Z,101442.00
2022-12-29T10:54:52.688Z,101427.00
2022-12-29T11:00:55.883Z,101435.00
2022-12-29T11:06:58.955Z,101424.00
2022-12-29T11:13:26.889Z,101428.00
2022-12-29T11:19:36.114Z,101419.00
2022-12-29T11:25:43.329Z,101418.00
2022-12-29T11:31:47.856Z,101412.00
2022-12-29T11:37:58.681Z,101415.00
2022-12-29T11:44:06.230Z,101402.00
2022-12-29T11:50:09.861Z,101389.00
2022-12-29T11:56:15.433Z,101282.00
2022-12-29T12:02:42.915Z,101406.00
2022-12-29T12:08:52.855Z,101394.00
2022-12-29T12:15:01.323Z,101383.00
2022-12-29T12:21:23.194Z,101362.00
2022-12-29T12:27:31.427Z,101369.00
2022-12-29T12:33:40.207Z,101367.00
2022-12-29T12:40:08.380Z,101366.00
2022-12-29T12:46:19.558Z,101367.00
2022-12-29T12:52:45.907Z,101362.00
2022-12-29T12:58:56.951Z,101358.00
2022-12-29T13:05:43.910Z,101365.00
2022-12-29T13:12:07.919Z,101369.00
2022-12-29T13:18:19.255Z,101363.00
2022-12-29T13:24:42.229Z,101356.00
2022-12-29T13:31:03.186Z,101360.00
2022-12-29T13:37:12.101Z,101363.00
2022-12-29T13:43:17.446Z,101364.00
2022-12-29T13:49:25.790Z,101358.00
2022-12-29T13:55:41.269Z,101346.00
2022-12-29T14:01:55.996Z,101349.00
2022-12-29T14:08:01.203Z,101355.00
2022-12-29T14:14:24.587Z,101340.00
2022-12-29T14:20:27.031Z,101342.00
2022-12-29T14:26:32.067Z,101350.00
2022-12-29T14:32:34.271Z,101357.00
2022-12-29T14:38:46.742Z,101359.00
2022-12-29T14:45:06.934Z,101348.00
2022-12-29T14:51:30.209Z,101356.00
2022-12-29T14:57:40.567Z,101351.00
2022-12-29T15:03:55.801Z,101342.00
2022-12-29T15:10:14.667Z,101330.00
2022-12-29T15:16:31.570Z,101338.00
2022-12-29T15:22:33.955Z,101336.00
2022-12-29T15:28:41.917Z,101342.00
2022-12-29T15:34:45.872Z,101344.00
2022-12-29T15:40:48.391Z,101337.00
2022-12-29T15:46:50.689Z,101343.00
2022-12-29T15:52:52.974Z,101351.00
2022-12-29T15:58:55.057Z,101347.00
2022-12-29T16:11:26.047Z,101349.00
2022-12-29T16:17:31.902Z,101346.00
2022-12-29T16:23:37.874Z,101337.00
2022-12-29T16:29:40.881Z,101326.00
2022-12-29T16:35:48.255Z,101330.00
2022-12-29T16:41:51.766Z,101326.00
2022-12-29T16:48:06.245Z,101335.00
2022-12-29T16:54:21.561Z,101333.00
2022-12-29T17:00:26.925Z,101324.00
2022-12-29T17:06:29.072Z,101337.00
2022-12-29T17:12:31.677Z,101355.00
2022-12-29T17:18:33.639Z,101350.00
2022-12-29T17:24:37.027Z,101356.00
2022-12-29T17:30:41.152Z,101355.00
2022-12-29T17:36:43.183Z,101335.00
2022-12-29T17:42:49.795Z,101339.00
2022-12-29T17:48:53.977Z,101341.00
2022-12-29T17:54:56.732Z,101344.00
2022-12-29T18:01:01.299Z,101336.00
2022-12-29T18:07:10.977Z,101335.00
2022-12-29T18:13:28.111Z,101344.00
2022-12-29T18:19:36.093Z,101340.00
2022-12-29T18:25:51.665Z,101323.00
2022-12-29T18:31:53.884Z,101324.00
2022-12-29T18:37:56.016Z,101329.00
2022-12-29T18:43:59.652Z,101335.00
2022-12-29T18:50:01.873Z,101319.00
2022-12-29T18:56:04.400Z,101315.00
2022-12-29T19:02:06.525Z,101322.00
2022-12-29T19:08:09.610Z,101310.00
2022-12-29T19:14:16.819Z,101313.00
2022-12-29T19:20:40.234Z,101296.00
2022-12-29T19:26:42.554Z,101295.00
2022-12-29T19:32:44.689Z,101298.00
2022-12-29T19:38:46.989Z,101298.00
2022-12-29T19:44:49.168Z,101298.00
2022-12-29T19:50:51.409Z,101296.00
2022-12-29T19:56:53.502Z,101286.00
2022-12-29T20:02:55.741Z,101295.00
2022-12-29T20:08:58.142Z,101298.00
2022-12-29T20:15:00.528Z,101300.00
2022-12-29T20:21:04.919Z,101273.00
2022-12-29T20:27:09.607Z,101278.00
2022-12-29T20:33:11.751Z,101276.00
2022-12-29T20:39:20.200Z,101288.00
2022-12-29T20:45:22.333Z,101289.00
2022-12-29T20:51:28.872Z,101292.00
2022-12-29T20:57:49.681Z,101278.00
2022-12-29T21:03:52.991Z,101285.00
2022-12-29T21:09:55.156Z,101291.00
2022-12-29T21:16:05.773Z,101285.00
2022-12-29T21:22:07.877Z,101276.00
2022-12-29T21:28:13.686Z,101269.00
2022-12-29T21:34:15.888Z,101262.00
2022-12-29T21:40:17.954Z,101274.00
2022-12-29T21:46:23.393Z,101261.00
2022-12-29T21:52:25.487Z,101257.00
2022-12-29T21:58:46.179Z,101258.00
2022-12-29T22:05:07.409Z,101241.00
2022-12-29T22:11:28.140Z,101248.00
2022-12-29T22:17:32.781Z,101251.00
2022-12-29T22:23:38.654Z,101229.00
2022-12-29T22:29:41.604Z,101226.00
2022-12-29T22:35:43.711Z,101214.00
2022-12-29T22:41:45.692Z,101217.00
2022-12-29T22:47:47.795Z,101203.00
2022-12-29T22:53:50.632Z,101215.00
2022-12-29T22:59:52.789Z,101220.00
2022-12-29T23:06:03.132Z,101212.00
2022-12-29T23:12:05.410Z,101216.00
2022-12-29T23:18:07.762Z,101213.00
2022-12-29T23:24:14.143Z,101205.00
2022-12-29T23:30:16.311Z,101207.00
2022-12-29T23:36:18.822Z,101205.00
2022-12-29T23:42:21.128Z,101209.00
2022-12-29T23:48:23.380Z,101195.00
2022-12-29T23:54:25.903Z,101211.00
